Time;durP1;ratioP1;P1;durP2;ratioP2;P2;SDS_P1;SDS_P2;PMS_P1;PMS_P2;Temp;Humidity;BMP_temperature;BMP_pressure;BME280_temperature;BME280_humidity;BME280_pressure;Samples;Min_cycle;Max_cycle;Signal;HPM_P1;HPM_P2
2022/06/30 00:01:36;;;;;;;5.70;4.07;;;22.00;80.50;;;;;;5115805;28;20087;-35
2022/06/30 00:04:03;;;;;;;6.15;4.53;;;22.00;80.40;;;;;;5112885;28;20062;-35
2022/06/30 00:06:30;;;;;;;5.50;4.05;;;21.90;80.90;;;;;;5102691;28;20127;-35
2022/06/30 00:08:56;;;;;;;5.20;4.30;;;21.80;81.10;;;;;;5104540;28;20549;-35
2022/06/30 00:11:25;;;;;;;5.63;4.20;;;21.80;80.80;;;;;;5112513;27;20051;-35
2022/06/30 00:13:52;;;;;;;7.75;5.07;;;21.80;80.90;;;;;;5097520;27;20450;-34
2022/06/30 00:16:18;;;;;;;5.88;4.43;;;21.70;81.90;;;;;;5102078;27;20052;-36
2022/06/30 00:18:46;;;;;;;9.23;4.57;;;21.60;81.60;;;;;;5101110;27;20438;-35
2022/06/30 00:21:13;;;;;;;4.75;3.95;;;21.60;82.40;;;;;;5095452;27;20060;-36
2022/06/30 00:23:39;;;;;;;7.15;4.07;;;21.60;82.10;;;;;;5114011;28;20445;-36
2022/06/30 00:26:07;;;;;;;5.10;4.25;;;21.50;82.00;;;;;;5111378;28;20052;-35
2022/06/30 00:28:35;;;;;;;9.27;4.05;;;21.50;81.90;;;;;;5109497;28;20507;-35
2022/06/30 00:31:02;;;;;;;4.88;3.75;;;21.50;82.00;;;;;;5107295;27;20055;-35
2022/06/30 00:33:28;;;;;;;7.50;3.90;;;21.40;82.00;;;;;;5134746;27;20501;-35
2022/06/30 00:35:55;;;;;;;4.82;4.28;;;21.40;82.40;;;;;;5094480;27;20560;-36
2022/06/30 00:38:22;;;;;;;5.57;4.30;;;21.30;83.40;;;;;;5107203;28;20052;-34
2022/06/30 00:40:49;;;;;;;7.40;4.65;;;21.20;83.60;;;;;;5114121;28;20051;-36
2022/06/30 00:43:16;;;;;;;6.28;3.72;;;21.20;84.30;;;;;;5109097;27;20086;-35
2022/06/30 00:45:45;;;;;;;5.40;4.00;;;21.10;84.30;;;;;;5106688;28;20067;-35
2022/06/30 00:48:12;;;;;;;5.13;4.30;;;21.10;84.20;;;;;;5101950;27;20075;-36
2022/06/30 00:50:38;;;;;;;5.32;4.50;;;21.10;84.80;;;;;;5107651;28;20093;-35
2022/06/30 00:53:06;;;;;;;6.55;4.35;;;21.00;85.00;;;;;;5093309;28;20079;-35
2022/06/30 00:55:33;;;;;;;4.40;3.90;;;20.90;84.60;;;;;;5094815;27;20075;-35
2022/06/30 00:58:01;;;;;;;4.97;4.32;;;20.90;84.50;;;;;;5112029;28;20471;-35
2022/06/30 01:00:28;;;;;;;5.03;3.65;;;20.90;84.60;;;;;;5101915;28;20537;-35
2022/06/30 01:02:56;;;;;;;6.35;4.40;;;20.90;84.70;;;;;;5099847;28;20104;-35
2022/06/30 01:05:23;;;;;;;4.57;3.58;;;20.80;85.90;;;;;;5106632;27;20101;-36
2022/06/30 01:07:49;;;;;;;7.97;4.18;;;20.80;86.30;;;;;;5094984;28;20069;-35
2022/06/30 01:13:00;;;;;;;8.55;4.50;;;20.70;86.00;;;;;;5100572;27;20047;-35
2022/06/30 01:15:27;;;;;;;4.45;3.95;;;20.60;87.00;;;;;;5097466;28;20048;-35
2022/06/30 01:17:55;;;;;;;6.15;4.40;;;20.60;87.30;;;;;;5107102;28;20472;-34
2022/06/30 01:20:26;;;;;;;7.18;3.97;;;20.60;87.90;;;;;;5097763;28;20047;-35
2022/06/30 01:22:54;;;;;;;5.78;3.78;;;20.50;87.20;;;;;;5110608;28;20058;-35
2022/06/30 01:25:20;;;;;;;8.15;4.20;;;20.50;87.50;;;;;;5109535;27;20087;-35
2022/06/30 01:27:47;;;;;;;7.93;4.30;;;20.50;87.60;;;;;;5113075;27;20096;-35
2022/06/30 01:30:14;;;;;;;6.28;3.45;;;20.50;87.90;;;;;;5108058;28;20097;-34
2022/06/30 01:32:42;;;;;;;5.80;4.05;;;20.50;87.50;;;;;;5111935;28;20044;-35
2022/06/30 01:35:09;;;;;;;5.90;4.15;;;20.40;87.90;;;;;;5100882;27;20044;-35
2022/06/30 01:37:46;;;;;;;5.75;3.72;;;20.40;88.10;;;;;;5094899;28;20071;-35
2022/06/30 01:40:14;;;;;;;5.50;3.90;;;20.30;87.20;;;;;;5098359;28;20135;-35
2022/06/30 01:42:41;;;;;;;10.50;4.22;;;20.30;88.20;;;;;;5098444;28;20048;-35
2022/06/30 01:45:08;;;;;;;5.45;3.90;;;20.30;88.70;;;;;;5108795;27;20050;-36
2022/06/30 01:47:36;;;;;;;5.55;3.88;;;20.20;88.90;;;;;;5100347;28;20048;-35
2022/06/30 01:50:05;;;;;;;6.45;4.05;;;20.20;88.60;;;;;;5093201;28;20094;-35
2022/06/30 01:52:31;;;;;;;5.95;3.60;;;20.20;88.50;;;;;;5092331;27;20499;-35
2022/06/30 01:54:58;;;;;;;6.65;4.15;;;20.10;89.40;;;;;;5092843;27;20503;-35
2022/06/30 01:57:26;;;;;;;4.90;3.70;;;20.10;89.00;;;;;;5101172;28;20117;-35
2022/06/30 01:59:53;;;;;;;5.30;3.65;;;20.10;89.00;;;;;;5092685;28;20442;-35
2022/06/30 02:02:20;;;;;;;8.23;4.10;;;20.00;88.90;;;;;;5095105;28;20582;-35
2022/06/30 02:04:51;;;;;;;5.03;3.70;;;20.00;89.00;;;;;;5108587;27;20055;-35
2022/06/30 02:07:17;;;;;;;5.37;3.90;;;20.00;89.20;;;;;;5125850;27;20109;-36
2022/06/30 02:09:44;;;;;;;4.97;3.97;;;19.90;89.10;;;;;;5093306;28;20125;-35
2022/06/30 02:14:57;;;;;;;6.25;3.45;;;19.90;89.30;;;;;;5096525;28;20051;-35
2022/06/30 02:17:24;;;;;;;9.32;3.90;;;19.90;89.10;;;;;;5101778;28;20071;-34
2022/06/30 02:19:53;;;;;;;5.10;3.08;;;19.80;89.30;;;;;;5107214;28;20074;-35
2022/06/30 02:22:19;;;;;;;4.32;3.60;;;19.80;89.10;;;;;;5106947;28;20047;-35
2022/06/30 02:24:46;;;;;;;5.07;3.13;;;19.80;89.20;;;;;;5105881;28;20043;-35
2022/06/30 02:27:13;;;;;;;6.30;3.90;;;19.80;88.80;;;;;;5108175;28;20536;-35
2022/06/30 02:29:40;;;;;;;4.15;3.40;;;19.70;88.70;;;;;;5092824;28;20052;-36
2022/06/30 02:32:09;;;;;;;3.90;3.47;;;19.70;89.00;;;;;;5095228;28;20048;-36
2022/06/30 02:34:36;;;;;;;8.13;4.72;;;19.70;89.40;;;;;;5094444;28;20131;-35
2022/06/30 02:37:03;;;;;;;7.75;3.63;;;19.70;90.10;;;;;;5106979;28;20056;-35
2022/06/30 02:39:29;;;;;;;6.78;3.60;;;19.60;89.90;;;;;;5092876;28;20052;-35
2022/06/30 02:41:56;;;;;;;5.38;3.83;;;19.60;90.20;;;;;;5092574;28;20048;-35
2022/06/30 02:44:23;;;;;;;6.82;3.72;;;19.60;90.30;;;;;;5110601;28;20051;-35
2022/06/30 02:46:50;;;;;;;4.68;3.72;;;19.50;90.30;;;;;;5106199;28;20051;-35
2022/06/30 02:49:19;;;;;;;8.18;4.30;;;19.50;90.70;;;;;;5106239;28;20140;-35
2022/06/30 02:51:45;;;;;;;5.50;4.00;;;19.50;90.70;;;;;;5103316;28;20083;-35
2022/06/30 02:54:12;;;;;;;5.68;3.85;;;19.40;91.10;;;;;;5110750;28;20096;-35
2022/06/30 02:56:39;;;;;;;8.25;3.97;;;19.40;91.00;;;;;;5092713;28;20527;-35
2022/06/30 02:59:06;;;;;;;5.78;4.15;;;19.40;91.00;;;;;;5107964;28;20059;-35
2022/06/30 03:01:33;;;;;;;9.93;4.13;;;19.30;91.10;;;;;;5095696;27;20457;-35
2022/06/30 03:04:02;;;;;;;6.50;3.58;;;19.30;91.00;;;;;;5128459;27;20052;-35
2022/06/30 03:06:30;;;;;;;6.50;3.83;;;19.30;91.00;;;;;;5096289;28;20048;-34
2022/06/30 03:08:57;;;;;;;4.97;3.92;;;19.30;91.00;;;;;;5096660;27;20052;-34
2022/06/30 03:11:23;;;;;;;8.38;3.47;;;19.30;91.10;;;;;;5095213;27;20434;-35
2022/06/30 03:13:50;;;;;;;5.63;3.88;;;19.30;91.00;;;;;;5114689;27;20048;-34
2022/06/30 03:16:17;;;;;;;11.07;3.72;;;19.30;91.50;;;;;;5110720;27;20051;-34
2022/06/30 03:18:44;;;;;;;3.53;3.22;;;19.20;91.50;;;;;;5104325;28;20066;-34
2022/06/30 03:21:11;;;;;;;5.57;3.80;;;19.20;91.20;;;;;;5108232;28;20079;-34
2022/06/30 03:23:39;;;;;;;7.38;3.88;;;19.20;91.40;;;;;;5109715;27;20125;-34
2022/06/30 03:26:06;;;;;;;5.95;3.95;;;19.20;91.40;;;;;;5096330;28;20484;-34
2022/06/30 03:28:33;;;;;;;7.70;3.95;;;19.10;91.60;;;;;;5099761;28;20051;-33
2022/06/30 03:31:00;;;;;;;6.93;3.58;;;19.10;91.80;;;;;;5110647;27;20495;-34
2022/06/30 03:33:27;;;;;;;5.05;3.92;;;19.10;92.00;;;;;;5115330;28;20084;-35
2022/06/30 03:35:54;;;;;;;6.10;3.72;;;19.00;92.10;;;;;;5101262;27;20065;-34
2022/06/30 03:38:20;;;;;;;4.03;3.63;;;19.00;91.80;;;;;;5098607;28;20552;-34
2022/06/30 03:40:49;;;;;;;6.32;4.10;;;19.00;91.80;;;;;;5097538;28;20098;-34
2022/06/30 03:43:16;;;;;;;7.30;4.28;;;19.00;92.50;;;;;;5095930;28;20087;-34
2022/06/30 03:45:43;;;;;;;5.30;4.18;;;18.90;92.50;;;;;;5098048;27;20400;-34
2022/06/30 03:48:10;;;;;;;5.80;4.10;;;18.90;92.60;;;;;;5114491;28;20174;-34
2022/06/30 03:50:36;;;;;;;5.10;4.47;;;19.00;92.80;;;;;;5106288;27;20056;-34
2022/06/30 03:53:04;;;;;;;10.10;3.70;;;18.90;93.40;;;;;;5103763;27;20515;-35
2022/06/30 03:55:30;;;;;;;10.02;3.90;;;18.90;93.10;;;;;;5105507;28;20075;-34
2022/06/30 03:57:58;;;;;;;6.78;4.00;;;18.90;93.00;;;;;;5095726;27;20048;-34
2022/06/30 04:00:25;;;;;;;7.80;4.20;;;18.90;92.80;;;;;;5094288;27;20138;-34
2022/06/30 04:02:52;;;;;;;8.25;4.10;;;18.90;92.90;;;;;;5113363;27;20055;-34
2022/06/30 04:05:19;;;;;;;5.50;3.47;;;18.90;93.10;;;;;;5102076;27;20097;-34
2022/06/30 04:07:46;;;;;;;8.63;4.35;;;18.90;92.90;;;;;;5129434;27;20115;-34
2022/06/30 04:10:14;;;;;;;5.10;3.58;;;18.90;93.40;;;;;;5114018;28;20043;-34
2022/06/30 04:12:41;;;;;;;5.60;3.70;;;18.90;92.90;;;;;;5100828;27;20079;-34
2022/06/30 04:15:10;;;;;;;8.48;4.10;;;18.90;93.00;;;;;;5108715;27;20445;-34
2022/06/30 04:17:37;;;;;;;5.82;3.90;;;18.90;92.70;;;;;;5110689;28;20043;-33
2022/06/30 04:20:04;;;;;;;3.97;3.35;;;18.90;92.70;;;;;;5109778;27;20072;-34
2022/06/30 04:22:31;;;;;;;4.80;3.90;;;18.90;92.40;;;;;;5112132;28;20139;-34
2022/06/30 04:24:58;;;;;;;10.13;4.72;;;18.90;92.90;;;;;;5107010;28;20441;-35
2022/06/30 04:27:25;;;;;;;5.53;4.35;;;18.90;93.30;;;;;;5111403;27;20083;-34
2022/06/30 04:29:52;;;;;;;5.95;3.78;;;18.90;93.80;;;;;;5101778;27;20052;-34
2022/06/30 04:35:05;;;;;;;5.68;4.45;;;18.90;94.30;;;;;;5094930;28;20048;-34
2022/06/30 04:37:32;;;;;;;7.20;4.45;;;18.90;94.60;;;;;;5094762;27;20044;-34
2022/06/30 04:42:43;;;;;;;10.02;4.93;;;18.90;95.10;;;;;;5096013;28;20081;-34
2022/06/30 04:45:10;;;;;;;8.68;4.60;;;18.90;95.20;;;;;;5108776;28;20089;-34
2022/06/30 04:47:38;;;;;;;7.95;4.85;;;18.90;95.40;;;;;;5095938;28;20742;-34
2022/06/30 04:50:06;;;;;;;5.78;4.15;;;18.90;95.60;;;;;;5113480;28;20518;-35
2022/06/30 04:52:33;;;;;;;6.35;4.60;;;18.90;95.80;;;;;;5097718;27;20075;-35
2022/06/30 04:54:59;;;;;;;8.13;4.72;;;18.90;95.90;;;;;;5109421;27;20056;-35
2022/06/30 04:57:26;;;;;;;6.38;4.68;;;18.90;96.00;;;;;;5102470;28;20047;-35
2022/06/30 04:59:53;;;;;;;7.63;5.47;;;18.90;96.00;;;;;;5094778;28;20106;-35
2022/06/30 05:02:20;;;;;;;6.88;4.72;;;19.00;96.20;;;;;;5127084;27;20142;-35
2022/06/30 05:04:48;;;;;;;5.82;4.57;;;19.00;96.40;;;;;;5112509;27;20075;-35
2022/06/30 05:07:16;;;;;;;10.20;5.13;;;19.00;96.20;;;;;;5098950;27;20047;-35
2022/06/30 05:09:43;;;;;;;8.10;5.00;;;19.10;96.70;;;;;;5093762;28;20051;-34
2022/06/30 05:12:10;;;;;;;7.65;5.00;;;19.10;96.60;;;;;;5093895;27;20052;-35
2022/06/30 05:14:37;;;;;;;8.13;5.30;;;19.10;96.60;;;;;;5109281;28;20051;-34
2022/06/30 05:17:04;;;;;;;5.63;4.65;;;19.20;96.80;;;;;;5097942;28;20079;-34
2022/06/30 05:19:31;;;;;;;8.48;5.18;;;19.20;96.70;;;;;;5108631;28;20131;-34
2022/06/30 05:21:59;;;;;;;6.47;5.38;;;19.30;96.90;;;;;;5112360;28;20043;-34
2022/06/30 05:27:10;;;;;;;10.98;5.97;;;19.30;97.10;;;;;;5107526;27;20071;-33
2022/06/30 05:29:37;;;;;;;6.32;5.47;;;19.40;96.90;;;;;;5113520;28;20047;-34
2022/06/30 05:32:04;;;;;;;8.00;5.65;;;19.50;96.90;;;;;;5102180;27;20059;-35
2022/06/30 05:34:31;;;;;;;7.40;5.32;;;19.60;96.90;;;;;;5097210;27;20052;-35
2022/06/30 05:36:59;;;;;;;9.25;5.50;;;19.70;96.80;;;;;;5107907;28;20130;-34
2022/06/30 05:39:26;;;;;;;7.75;5.75;;;19.80;96.80;;;;;;5095324;27;20142;-36
2022/06/30 05:41:53;;;;;;;7.00;5.47;;;19.80;96.80;;;;;;5109917;28;20558;-35
2022/06/30 05:44:19;;;;;;;9.13;5.68;;;20.00;96.80;;;;;;5103122;27;20078;-35
2022/06/30 05:46:46;;;;;;;9.40;5.97;;;20.00;96.80;;;;;;5093322;27;20036;-35
2022/06/30 05:49:13;;;;;;;7.80;5.88;;;20.20;96.90;;;;;;5106935;27;20074;-35
2022/06/30 05:51:40;;;;;;;7.25;5.90;;;20.30;96.80;;;;;;5101090;27;20105;-34
2022/06/30 05:54:08;;;;;;;9.10;5.97;;;20.40;96.70;;;;;;5098407;28;20251;-34
2022/06/30 05:56:35;;;;;;;9.15;6.28;;;20.50;96.70;;;;;;5097450;27;20090;-34
2022/06/30 05:59:01;;;;;;;8.10;6.43;;;20.50;96.60;;;;;;5094335;27;20050;-35
2022/06/30 06:01:28;;;;;;;8.98;6.30;;;20.60;96.50;;;;;;5095130;28;20048;-34
2022/06/30 06:03:55;;;;;;;6.35;5.65;;;20.70;96.50;;;;;;5091905;28;20066;-35
2022/06/30 06:06:22;;;;;;;9.57;6.28;;;20.90;96.50;;;;;;5095523;28;20079;-34
2022/06/30 06:08:48;;;;;;;8.48;6.07;;;21.00;96.20;;;;;;5101799;28;20130;-34
2022/06/30 06:11:17;;;;;;;7.47;5.97;;;21.10;96.20;;;;;;5099242;28;20132;-35
2022/06/30 06:13:43;;;;;;;8.27;6.28;;;21.20;96.00;;;;;;5107498;28;20039;-34
2022/06/30 06:16:10;;;;;;;8.63;6.03;;;21.30;96.00;;;;;;5101978;28;20055;-35
2022/06/30 06:18:37;;;;;;;8.13;6.13;;;21.40;95.90;;;;;;5093109;28;20072;-35
2022/06/30 06:21:04;;;;;;;8.98;6.03;;;21.50;95.90;;;;;;5098942;27;20548;-35
2022/06/30 06:23:31;;;;;;;12.63;6.05;;;21.60;95.70;;;;;;5109983;28;20055;-35
2022/06/30 06:25:57;;;;;;;10.35;6.28;;;21.70;95.50;;;;;;5111819;28;20104;-34
2022/06/30 06:31:10;;;;;;;8.20;6.07;;;21.90;95.10;;;;;;5097490;28;20138;-35
2022/06/30 06:33:38;;;;;;;9.32;5.93;;;22.00;95.00;;;;;;5097835;28;20109;-34
2022/06/30 06:36:05;;;;;;;9.48;6.25;;;22.10;95.00;;;;;;5100718;28;20052;-34
2022/06/30 06:38:32;;;;;;;15.32;6.15;;;22.30;95.10;;;;;;5112165;28;20044;-35
2022/06/30 06:40:59;;;;;;;8.52;5.90;;;22.40;94.90;;;;;;5093126;28;20317;-35
2022/06/30 06:43:27;;;;;;;8.75;6.25;;;22.60;95.00;;;;;;5093732;28;20203;-35
2022/06/30 06:45:54;;;;;;;12.25;6.95;;;22.70;94.60;;;;;;5111774;28;20096;-35
2022/06/30 06:48:22;;;;;;;7.78;6.45;;;22.80;94.30;;;;;;5110534;28;20059;-35
2022/06/30 06:50:48;;;;;;;9.90;6.50;;;22.90;94.10;;;;;;5112815;28;20047;-35
2022/06/30 06:53:15;;;;;;;9.00;5.80;;;23.00;94.10;;;;;;5098996;28;20079;-34
2022/06/30 06:55:45;;;;;;;14.30;6.60;;;23.10;94.10;;;;;;5105415;28;20074;-34
2022/06/30 06:58:12;;;;;;;15.90;7.28;;;23.20;94.20;;;;;;5112524;28;20116;-35
2022/06/30 07:00:40;;;;;;;7.85;6.82;;;23.30;93.60;;;;;;5104241;28;20568;-35
2022/06/30 07:03:07;;;;;;;11.75;7.63;;;23.30;93.60;;;;;;5099036;28;20048;-34
2022/06/30 07:05:34;;;;;;;7.18;6.47;;;23.50;93.70;;;;;;5094736;28;20086;-35
2022/06/30 07:08:01;;;;;;;8.57;6.95;;;23.60;93.40;;;;;;5116357;28;20418;-35
2022/06/30 07:10:28;;;;;;;8.30;6.35;;;23.70;93.20;;;;;;5113033;27;20044;-35
2022/06/30 07:12:55;;;;;;;8.18;7.15;;;23.80;93.10;;;;;;5107460;28;20093;-35
2022/06/30 07:15:22;;;;;;;10.52;6.43;;;23.90;92.90;;;;;;5105728;28;20056;-35
2022/06/30 07:17:50;;;;;;;11.25;6.10;;;23.90;92.80;;;;;;5103444;28;20063;-34
2022/06/30 07:20:17;;;;;;;7.10;6.05;;;24.10;93.00;;;;;;5119202;27;20052;-35
2022/06/30 07:22:44;;;;;;;9.88;6.75;;;24.20;92.90;;;;;;5112868;28;20079;-35
2022/06/30 07:25:11;;;;;;;12.05;7.75;;;24.40;92.60;;;;;;5110082;28;20075;-35
2022/06/30 07:27:38;;;;;;;8.57;6.95;;;24.50;92.20;;;;;;5112198;28;20423;-35
2022/06/30 07:30:05;;;;;;;10.15;7.18;;;24.50;92.00;;;;;;5111122;28;20056;-35
2022/06/30 07:32:38;;;;;;;9.57;6.93;;;24.60;91.90;;;;;;5108936;28;20071;-36
2022/06/30 07:35:07;;;;;;;8.98;7.75;;;24.80;91.70;;;;;;5111882;28;20048;-35
2022/06/30 07:37:37;;;;;;;12.25;7.88;;;24.80;91.40;;;;;;5111566;28;20043;-35
2022/06/30 07:40:05;;;;;;;10.00;7.70;;;24.90;91.10;;;;;;5112136;28;20051;-36
2022/06/30 07:42:32;;;;;;;8.77;7.00;;;24.90;91.00;;;;;;5112354;28;20101;-35
2022/06/30 07:44:58;;;;;;;8.23;5.85;;;25.00;91.00;;;;;;5111522;28;20063;-35
2022/06/30 07:47:25;;;;;;;9.27;7.22;;;25.10;91.10;;;;;;5110473;28;20122;-34
2022/06/30 07:49:52;;;;;;;10.15;7.22;;;25.30;91.00;;;;;;5114306;28;20444;-36
2022/06/30 07:52:20;;;;;;;8.05;6.97;;;25.40;90.80;;;;;;5110198;28;20047;-35
2022/06/30 07:54:47;;;;;;;9.57;7.55;;;25.40;90.60;;;;;;5098132;27;20093;-35
2022/06/30 07:57:14;;;;;;;9.85;6.53;;;25.60;90.90;;;;;;5096884;27;20048;-35
2022/06/30 07:59:41;;;;;;;10.13;7.38;;;25.70;90.60;;;;;;5108960;27;20461;-35
2022/06/30 08:02:07;;;;;;;9.15;7.78;;;25.90;90.30;;;;;;5097484;28;20078;-35
2022/06/30 08:04:35;;;;;;;9.23;7.25;;;26.00;90.10;;;;;;5102607;28;20060;-36
2022/06/30 08:07:03;;;;;;;8.75;7.85;;;26.10;90.10;;;;;;5114091;27;20039;-35
2022/06/30 08:09:31;;;;;;;12.70;7.72;;;26.30;89.50;;;;;;5100740;28;20407;-36
2022/06/30 08:11:59;;;;;;;8.75;6.82;;;26.40;89.30;;;;;;5095307;28;20083;-36
2022/06/30 08:14:25;;;;;;;8.55;6.97;;;26.50;89.50;;;;;;5110605;28;20050;-35
2022/06/30 08:16:53;;;;;;;10.80;6.97;;;26.70;89.40;;;;;;5115076;28;20052;-35
2022/06/30 08:19:20;;;;;;;12.88;9.00;;;26.90;89.10;;;;;;5114497;28;20100;-35
2022/06/30 08:21:47;;;;;;;8.25;7.43;;;27.00;87.60;;;;;;5114782;28;20732;-35
2022/06/30 08:24:14;;;;;;;13.25;9.10;;;27.00;87.70;;;;;;5114862;28;20092;-35
2022/06/30 08:26:42;;;;;;;11.65;8.50;;;27.10;87.20;;;;;;5095127;28;20077;-35
2022/06/30 08:29:11;;;;;;;11.05;8.82;;;27.20;87.30;;;;;;5094170;28;20051;-35
2022/06/30 08:31:38;;;;;;;9.27;7.53;;;27.30;86.40;;;;;;5103313;28;20043;-35
2022/06/30 08:34:05;;;;;;;9.52;8.63;;;27.40;87.20;;;;;;5115464;28;20052;-36
2022/06/30 08:36:32;;;;;;;13.05;9.40;;;27.50;86.10;;;;;;5115144;28;20603;-36
2022/06/30 08:38:58;;;;;;;10.43;9.38;;;27.60;85.30;;;;;;5114347;28;20043;-36
2022/06/30 08:44:12;;;;;;;11.07;8.68;;;27.80;84.40;;;;;;5115319;28;20126;-36
2022/06/30 08:46:39;;;;;;;15.77;9.23;;;27.90;84.40;;;;;;5115036;28;20056;-36
2022/06/30 08:49:06;;;;;;;10.70;8.65;;;28.00;84.20;;;;;;5102936;28;20047;-36
2022/06/30 08:51:35;;;;;;;12.77;10.25;;;28.20;84.50;;;;;;5114060;28;20456;-35
2022/06/30 08:54:03;;;;;;;12.25;9.57;;;28.30;84.00;;;;;;5115265;28;20040;-36
2022/06/30 08:56:30;;;;;;;13.93;9.40;;;28.40;82.60;;;;;;5113636;28;20102;-36
2022/06/30 08:58:56;;;;;;;14.40;10.23;;;28.40;82.40;;;;;;5112237;28;20101;-36
2022/06/30 09:01:25;;;;;;;10.55;8.07;;;28.50;82.10;;;;;;5098643;28;20123;-36
2022/06/30 09:03:51;;;;;;;12.60;9.48;;;28.60;82.10;;;;;;5094768;28;20052;-36
2022/06/30 09:06:18;;;;;;;10.88;7.82;;;28.70;81.90;;;;;;5094666;28;20044;-35
2022/06/30 09:08:45;;;;;;;11.80;8.35;;;28.80;81.60;;;;;;5094274;28;20048;-35
2022/06/30 09:11:12;;;;;;;10.15;9.10;;;28.90;81.70;;;;;;5094422;28;20091;-35
2022/06/30 09:13:43;;;;;;;14.90;10.60;;;29.00;81.10;;;;;;5094054;28;20052;-36
2022/06/30 09:16:10;;;;;;;;;;;29.10;80.30;;;;;;5094935;28;20044;-35
2022/06/30 09:18:39;;;;;;;12.70;8.85;;;29.20;81.50;;;;;;5099216;27;19963;-36
2022/06/30 09:21:14;;;;;;;12.50;9.80;;;29.40;80.80;;;;;;5114563;28;20051;-36
2022/06/30 09:23:42;;;;;;;10.77;8.80;;;29.60;79.70;;;;;;5114431;28;20403;-36
2022/06/30 09:26:10;;;;;;;10.05;8.80;;;29.70;79.50;;;;;;5114236;28;20104;-36
2022/06/30 09:28:41;;;;;;;11.50;9.88;;;29.70;79.20;;;;;;5113409;28;20059;-36
2022/06/30 09:31:08;;;;;;;11.50;8.35;;;29.60;78.10;;;;;;5114544;28;20501;-36
2022/06/30 09:33:35;;;;;;;9.35;8.38;;;29.60;78.70;;;;;;5114266;28;20052;-35
2022/06/30 09:36:24;;;;;;;8.13;7.15;;;29.70;77.70;;;;;;5111652;28;20475;-36
2022/06/30 09:39:02;;;;;;;14.75;10.02;;;29.90;78.90;;;;;;5113987;28;20116;-36
2022/06/30 09:41:29;;;;;;;12.05;9.02;;;30.00;78.00;;;;;;5114063;28;20089;-37
2022/06/30 09:43:56;;;;;;;11.50;8.57;;;30.20;77.50;;;;;;5108852;28;20056;-36
2022/06/30 09:46:23;;;;;;;14.85;9.55;;;30.60;77.20;;;;;;5103947;28;20047;-36
2022/06/30 09:48:50;;;;;;;10.98;7.93;;;30.70;74.30;;;;;;5114123;28;20047;-37
2022/06/30 09:51:17;;;;;;;11.05;6.55;;;30.70;74.00;;;;;;5113669;28;20052;-36
2022/06/30 09:53:47;;;;;;;10.30;6.80;;;30.90;74.50;;;;;;5114130;28;20052;-36
2022/06/30 09:56:14;;;;;;;10.68;8.43;;;31.10;72.40;;;;;;5102145;28;20101;-36
2022/06/30 09:58:42;;;;;;;9.18;7.47;;;31.10;70.70;;;;;;5102933;28;20079;-36
2022/06/30 10:01:09;;;;;;;13.23;8.10;;;31.20;71.50;;;;;;5113620;28;20050;-37
2022/06/30 10:03:36;;;;;;;10.65;8.32;;;31.30;71.30;;;;;;5112746;28;20051;-36
2022/06/30 10:06:10;;;;;;;11.68;8.60;;;31.40;70.70;;;;;;5111714;28;20047;-36
2022/06/30 10:08:37;;;;;;;12.68;8.80;;;31.50;70.10;;;;;;5112959;28;20079;-36
2022/06/30 10:11:05;;;;;;;11.63;8.18;;;31.50;68.90;;;;;;5111744;28;20130;-36
2022/06/30 10:13:35;;;;;;;10.77;8.35;;;31.50;69.10;;;;;;5102690;28;20075;-36
2022/06/30 10:16:06;;;;;;;11.23;8.48;;;31.50;68.70;;;;;;5092588;28;20056;-36
2022/06/30 10:18:36;;;;;;;9.10;7.40;;;31.50;69.00;;;;;;5092911;28;20044;-36
2022/06/30 10:21:04;;;;;;;9.27;7.00;;;31.70;69.60;;;;;;5093263;28;20411;-36
2022/06/30 10:23:33;;;;;;;8.43;6.35;;;31.90;69.40;;;;;;5093087;28;20048;-37
2022/06/30 10:25:59;;;;;;;7.82;6.97;;;32.20;69.90;;;;;;5093071;28;20079;-37
2022/06/30 10:28:28;;;;;;;10.13;7.72;;;32.40;68.70;;;;;;5099961;28;20536;-37
2022/06/30 10:31:00;;;;;;;8.48;6.78;;;32.40;67.70;;;;;;5111120;28;20155;-36
2022/06/30 10:33:29;;;;;;;6.82;6.13;;;32.30;67.60;;;;;;5112111;28;20052;-36
2022/06/30 10:36:00;;;;;;;7.63;5.35;;;32.20;68.70;;;;;;5107049;28;20101;-35
2022/06/30 10:38:30;;;;;;;7.68;5.90;;;32.00;68.20;;;;;;5091535;28;20052;-36
2022/06/30 10:41:01;;;;;;;6.77;5.00;;;31.80;66.20;;;;;;5092861;28;20436;-37
2022/06/30 10:43:29;;;;;;;7.60;5.20;;;31.70;66.40;;;;;;5091552;28;20140;-35
2022/06/30 10:46:05;;;;;;;8.35;4.78;;;31.70;65.70;;;;;;5092628;28;20488;-37
2022/06/30 10:48:50;;;;;;;10.23;4.28;;;31.70;65.40;;;;;;5092487;28;20454;-36
2022/06/30 10:51:17;;;;;;;5.47;4.03;;;31.70;65.60;;;;;;5111648;28;20047;-36
2022/06/30 10:53:51;;;;;;;8.85;4.80;;;31.80;66.00;;;;;;5113036;28;20048;-36
2022/06/30 10:56:19;;;;;;;10.43;4.72;;;32.00;64.90;;;;;;5113108;28;20083;-36
2022/06/30 10:59:10;;;;;;;11.30;5.13;;;32.10;64.50;;;;;;5113206;28;20044;-36
2022/06/30 11:01:37;;;;;;;9.75;5.72;;;32.10;64.00;;;;;;5113004;28;20483;-37
2022/06/30 11:04:08;;;;;;;5.93;5.30;;;32.30;63.20;;;;;;5112229;28;20433;-36
2022/06/30 11:06:58;;;;;;;8.77;6.10;;;32.40;63.20;;;;;;5111264;28;20043;-36
2022/06/30 11:10:07;;;;;;;7.82;6.32;;;32.20;64.00;;;;;;5111279;28;20056;-36
2022/06/30 11:13:08;;;;;;;6.03;5.15;;;32.10;64.90;;;;;;5110388;27;20051;-36
2022/06/30 11:15:55;;;;;;;11.55;7.40;;;32.00;65.40;;;;;;5095580;28;20051;-36
2022/06/30 11:18:22;;;;;;;7.80;6.72;;;31.80;65.20;;;;;;5111596;28;20091;-36
2022/06/30 11:20:50;;;;;;;8.70;6.10;;;31.60;65.10;;;;;;5113193;28;20048;-36
2022/06/30 11:23:21;;;;;;;7.18;5.70;;;31.60;64.90;;;;;;5116803;28;20047;-36
2022/06/30 11:28:34;;;;;;;9.85;6.35;;;31.70;64.20;;;;;;5116711;28;20051;-36
2022/06/30 11:31:02;;;;;;;7.18;5.15;;;31.60;64.30;;;;;;5115732;28;20091;-36
2022/06/30 11:33:29;;;;;;;7.78;4.22;;;31.40;63.70;;;;;;5096384;28;20108;-35
2022/06/30 11:36:06;;;;;;;5.57;4.13;;;31.30;63.40;;;;;;5095188;28;20467;-36
2022/06/30 11:38:34;;;;;;;7.47;3.22;;;31.30;63.80;;;;;;5095739;28;20048;-35
2022/06/30 11:43:51;;;;;;;4.95;2.70;;;31.50;60.40;;;;;;5108478;28;20051;-37
2022/06/30 11:46:19;;;;;;;7.47;3.03;;;31.60;59.20;;;;;;5111208;28;20054;-37
2022/06/30 11:48:47;;;;;;;4.82;3.40;;;31.80;58.70;;;;;;5114334;28;20093;-36
2022/06/30 11:51:13;;;;;;;7.28;2.97;;;32.00;58.50;;;;;;5101926;28;20048;-36
2022/06/30 11:53:40;;;;;;;6.72;3.35;;;32.20;58.30;;;;;;5102225;28;20127;-36
2022/06/30 11:56:07;;;;;;;12.68;5.85;;;32.40;57.60;;;;;;5094946;28;20052;-37
2022/06/30 11:58:34;;;;;;;11.32;5.65;;;32.60;58.30;;;;;;5114387;28;20055;-36
2022/06/30 12:01:12;;;;;;;15.02;5.13;;;32.70;59.10;;;;;;5114977;28;20085;-36
2022/06/30 12:03:43;;;;;;;8.57;3.63;;;32.80;58.20;;;;;;5105929;28;20423;-35
2022/06/30 12:06:10;;;;;;;10.63;4.07;;;32.80;57.20;;;;;;5096187;28;20083;-36
2022/06/30 12:08:37;;;;;;;9.00;3.72;;;32.90;57.90;;;;;;5094181;28;20059;-36
2022/06/30 12:11:04;;;;;;;5.47;3.70;;;33.10;57.50;;;;;;5115721;28;20125;-36
2022/06/30 12:13:31;;;;;;;5.90;4.18;;;33.30;57.90;;;;;;5109513;28;20147;-36
2022/06/30 12:15:57;;;;;;;11.75;4.53;;;33.30;57.60;;;;;;5115458;28;20048;-36
2022/06/30 12:18:25;;;;;;;8.70;3.45;;;33.40;58.20;;;;;;5107918;28;20123;-36
2022/06/30 12:20:53;;;;;;;3.63;2.50;;;33.40;56.10;;;;;;5104794;28;20109;-36
2022/06/30 12:23:20;;;;;;;8.40;3.05;;;33.50;55.00;;;;;;5113629;28;20044;-36
2022/06/30 12:25:46;;;;;;;5.63;2.70;;;33.50;54.30;;;;;;5115501;28;20522;-37
2022/06/30 12:28:14;;;;;;;5.43;2.80;;;33.50;55.10;;;;;;5113358;28;20130;-35
2022/06/30 12:30:41;;;;;;;4.95;2.72;;;33.50;54.70;;;;;;5115430;28;20051;-36
2022/06/30 12:33:08;;;;;;;9.68;3.15;;;33.50;53.80;;;;;;5114217;28;20124;-36
2022/06/30 12:35:36;;;;;;;7.28;2.80;;;33.50;53.90;;;;;;5095279;28;20492;-35
2022/06/30 12:38:14;;;;;;;6.15;3.22;;;33.50;53.50;;;;;;5095030;28;20149;-36
2022/06/30 12:40:41;;;;;;;6.60;3.30;;;33.50;55.00;;;;;;5095579;27;20075;-36
2022/06/30 12:43:08;;;;;;;6.78;3.53;;;33.40;55.00;;;;;;5103057;28;20146;-36
2022/06/30 12:45:55;;;;;;;9.10;3.35;;;33.40;55.20;;;;;;5095860;27;20052;-36
2022/06/30 12:48:41;;;;;;;7.80;3.55;;;33.40;55.30;;;;;;5101157;28;20040;-37
2022/06/30 12:51:08;;;;;;;6.30;3.70;;;33.30;56.10;;;;;;5108421;27;20051;-36
2022/06/30 12:53:38;;;;;;;8.70;4.32;;;33.20;55.90;;;;;;5094524;28;20101;-36
2022/06/30 12:56:06;;;;;;;6.20;4.10;;;33.10;55.90;;;;;;5098071;28;20051;-36
2022/06/30 12:58:44;;;;;;;8.57;4.00;;;33.10;55.50;;;;;;5114090;28;20467;-36
2022/06/30 13:01:14;;;;;;;6.57;4.05;;;33.00;56.90;;;;;;5102856;28;20079;-35
2022/06/30 13:03:52;;;;;;;9.93;4.73;;;33.00;57.30;;;;;;5103514;28;20100;-36
2022/06/30 13:06:19;;;;;;;9.18;4.20;;;33.10;57.90;;;;;;5093357;28;20801;-36
2022/06/30 13:08:47;;;;;;;7.13;4.85;;;33.20;58.50;;;;;;5094241;28;20090;-36
2022/06/30 13:11:16;;;;;;;8.48;4.97;;;33.40;58.70;;;;;;5093695;28;20064;-36
2022/06/30 13:13:44;;;;;;;6.82;4.10;;;33.40;58.30;;;;;;5094408;28;20480;-36
2022/06/30 13:16:11;;;;;;;8.40;4.32;;;33.40;58.70;;;;;;5052951;28;20099;-36